sensor_id;sensor_type;location;lat;lon;timestamp;P1;durP1;ratioP1;P2;durP2;ratioP2
52342;SDS011;38277;51.972;4.624;2023-03-01T00:04:17;15.5;;;10.0;;
52342;SDS011;38277;51.972;4.624;2023-03-01T00:08:51;14.8;;;8.7;;
52342;SDS011;38277;51.972;4.624;2023-03-01T00:13:23;17.1;;;8.7;;
52342;SDS011;38277;51.972;4.624;2023-03-01T00:17:42;16.4;;;9.0;;
52342;SDS011;38277;51.972;4.624;2023-03-01T00:22:29;19.0;;;10.2;;
52342;SDS011;38277;51.972;4.624;2023-03-01T00:27:07;16.4;;;9.2;;
52342;SDS011;38277;51.972;4.624;2023-03-01T00:35:44;16.4;;;8.6;;
52342;SDS011;38277;51.972;4.624;2023-03-01T00:45:04;17.5;;;8.5;;
52342;SDS011;38277;51.972;4.624;2023-03-01T00:49:35;15.5;;;8.7;;
52342;SDS011;38277;51.972;4.624;2023-03-01T00:54:04;16.1;;;8.9;;
52342;SDS011;38277;51.972;4.624;2023-03-01T00:58:34;17.5;;;9.4;;
52342;SDS011;38277;51.972;4.624;2023-03-01T01:03:01;15.7;;;8.6;;
52342;SDS011;38277;51.972;4.624;2023-03-01T01:11:48;15.8;;;9.2;;
52342;SDS011;38277;51.972;4.624;2023-03-01T01:16:10;17.3;;;9.3;;
52342;SDS011;38277;51.972;4.624;2023-03-01T01:20:44;20.0;;;9.8;;
52342;SDS011;38277;51.972;4.624;2023-03-01T01:25:30;17.3;;;9.6;;
52342;SDS011;38277;51.972;4.624;2023-03-01T01:29:42;18.0;;;10.6;;
52342;SDS011;38277;51.972;4.624;2023-03-01T01:34:12;18.0;;;10.5;;
52342;SDS011;38277;51.972;4.624;2023-03-01T01:38:40;16.0;;;10.0;;
52342;SDS011;38277;51.972;4.624;2023-03-01T01:47:48;21.6;;;10.7;;
52342;SDS011;38277;51.972;4.624;2023-03-01T01:52:37;17.9;;;10.6;;
52342;SDS011;38277;51.972;4.624;2023-03-01T02:01:32;22.0;;;12.9;;
52342;SDS011;38277;51.972;4.624;2023-03-01T02:10:29;22.7;;;13.1;;
52342;SDS011;38277;51.972;4.624;2023-03-01T02:14:58;23.3;;;12.3;;
52342;SDS011;38277;51.972;4.624;2023-03-01T02:24:02;22.2;;;12.9;;
52342;SDS011;38277;51.972;4.624;2023-03-01T02:28:33;21.1;;;12.5;;
52342;SDS011;38277;51.972;4.624;2023-03-01T02:51:41;20.9;;;11.7;;
52342;SDS011;38277;51.972;4.624;2023-03-01T02:56:00;21.3;;;11.3;;
52342;SDS011;38277;51.972;4.624;2023-03-01T03:08:04;19.3;;;10.9;;
52342;SDS011;38277;51.972;4.624;2023-03-01T03:14:06;19.0;;;10.4;;
52342;SDS011;38277;51.972;4.624;2023-03-01T03:19:02;22.2;;;11.8;;
52342;SDS011;38277;51.972;4.624;2023-03-01T03:28:06;19.3;;;11.0;;
52342;SDS011;38277;51.972;4.624;2023-03-01T03:37:09;21.1;;;12.2;;
52342;SDS011;38277;51.972;4.624;2023-03-01T03:46:12;21.4;;;11.5;;
52342;SDS011;38277;51.972;4.624;2023-03-01T03:58:16;23.0;;;12.7;;
52342;SDS011;38277;51.972;4.624;2023-03-01T04:07:19;19.9;;;12.4;;
52342;SDS011;38277;51.972;4.624;2023-03-01T04:19:24;23.7;;;13.3;;
52342;SDS011;38277;51.972;4.624;2023-03-01T04:22:24;25.2;;;14.1;;
52342;SDS011;38277;51.972;4.624;2023-03-01T04:31:27;23.7;;;15.1;;
52342;SDS011;38277;51.972;4.624;2023-03-01T04:43:33;21.7;;;12.3;;
52342;SDS011;38277;51.972;4.624;2023-03-01T04:49:34;23.3;;;14.0;;
52342;SDS011;38277;51.972;4.624;2023-03-01T04:58:37;19.6;;;11.5;;
52342;SDS011;38277;51.972;4.624;2023-03-01T05:07:41;18.9;;;11.1;;
52342;SDS011;38277;51.972;4.624;2023-03-01T05:19:44;20.4;;;12.5;;
52342;SDS011;38277;51.972;4.624;2023-03-01T05:25:46;20.8;;;12.4;;
52342;SDS011;38277;51.972;4.624;2023-03-01T05:34:49;21.3;;;12.5;;
52342;SDS011;38277;51.972;4.624;2023-03-01T05:43:52;20.3;;;11.6;;
52342;SDS011;38277;51.972;4.624;2023-03-01T05:52:59;18.2;;;11.0;;
52342;SDS011;38277;51.972;4.624;2023-03-01T06:01:59;19.8;;;11.7;;
52342;SDS011;38277;51.972;4.624;2023-03-01T06:11:02;20.2;;;11.9;;
52342;SDS011;38277;51.972;4.624;2023-03-01T06:20:06;19.7;;;11.7;;
52342;SDS011;38277;51.972;4.624;2023-03-01T06:32:09;16.9;;;9.9;;
52342;SDS011;38277;51.972;4.624;2023-03-01T06:38:12;16.6;;;10.3;;
52342;SDS011;38277;51.972;4.624;2023-03-01T06:47:14;18.3;;;10.0;;
52342;SDS011;38277;51.972;4.624;2023-03-01T06:56:18;18.6;;;11.6;;
52342;SDS011;38277;51.972;4.624;2023-03-01T07:08:23;16.5;;;9.8;;
52342;SDS011;38277;51.972;4.624;2023-03-01T07:20:26;15.8;;;8.8;;
52342;SDS011;38277;51.972;4.624;2023-03-01T07:23:27;17.5;;;9.7;;
52342;SDS011;38277;51.972;4.624;2023-03-01T07:32:30;17.2;;;9.4;;
52342;SDS011;38277;51.972;4.624;2023-03-01T07:44:34;18.3;;;9.8;;
52342;SDS011;38277;51.972;4.624;2023-03-01T07:50:36;19.4;;;11.6;;
52342;SDS011;38277;51.972;4.624;2023-03-01T07:59:39;22.4;;;12.9;;
52342;SDS011;38277;51.972;4.624;2023-03-01T08:10:35;21.3;;;13.0;;
52342;SDS011;38277;51.972;4.624;2023-03-01T08:19:38;21.8;;;13.1;;
52342;SDS011;38277;51.972;4.624;2023-03-01T08:28:41;22.0;;;11.9;;
52342;SDS011;38277;51.972;4.624;2023-03-01T08:37:45;20.9;;;11.3;;
52342;SDS011;38277;51.972;4.624;2023-03-01T08:49:49;20.1;;;10.2;;
52342;SDS011;38277;51.972;4.624;2023-03-01T09:01:53;17.5;;;9.5;;
52342;SDS011;38277;51.972;4.624;2023-03-01T09:04:54;14.9;;;7.4;;
52342;SDS011;38277;51.972;4.624;2023-03-01T09:13:57;14.9;;;5.8;;
52342;SDS011;38277;51.972;4.624;2023-03-01T09:23:00;14.3;;;6.9;;
52342;SDS011;38277;51.972;4.624;2023-03-01T09:32:03;13.6;;;6.8;;
52342;SDS011;38277;51.972;4.624;2023-03-01T09:41:11;12.4;;;6.8;;
52342;SDS011;38277;51.972;4.624;2023-03-01T09:50:12;10.2;;;5.7;;
52342;SDS011;38277;51.972;4.624;2023-03-01T09:59:38;9.5;;;4.8;;
52342;SDS011;38277;51.972;4.624;2023-03-01T10:11:20;13.7;;;6.2;;
52342;SDS011;38277;51.972;4.624;2023-03-01T10:17:20;12.2;;;6.6;;
52342;SDS011;38277;51.972;4.624;2023-03-01T10:26:44;12.9;;;7.0;;
52342;SDS011;38277;51.972;4.624;2023-03-01T10:35:26;15.6;;;7.4;;
52342;SDS011;38277;51.972;4.624;2023-03-01T10:44:47;18.9;;;8.2;;
52342;SDS011;38277;51.972;4.624;2023-03-01T10:53:34;12.4;;;6.8;;
52342;SDS011;38277;51.972;4.624;2023-03-01T11:02:34;12.9;;;6.9;;
52342;SDS011;38277;51.972;4.624;2023-03-01T11:11:38;16.0;;;7.9;;
52342;SDS011;38277;51.972;4.624;2023-03-01T11:23:42;13.9;;;7.2;;
52342;SDS011;38277;51.972;4.624;2023-03-01T11:29:46;13.9;;;6.3;;
52342;SDS011;38277;51.972;4.624;2023-03-01T11:38:47;13.9;;;6.6;;
52342;SDS011;38277;51.972;4.624;2023-03-01T11:48:48;11.3;;;6.1;;
52342;SDS011;38277;51.972;4.624;2023-03-01T11:58:08;11.9;;;5.9;;
52342;SDS011;38277;51.972;4.624;2023-03-01T12:08:20;10.4;;;5.5;;
52342;SDS011;38277;51.972;4.624;2023-03-01T12:22:13;10.3;;;5.4;;
52342;SDS011;38277;51.972;4.624;2023-03-01T12:29:18;9.8;;;4.5;;
52342;SDS011;38277;51.972;4.624;2023-03-01T12:42:48;7.9;;;4.4;;
52342;SDS011;38277;51.972;4.624;2023-03-01T12:49:26;9.0;;;4.5;;
52342;SDS011;38277;51.972;4.624;2023-03-01T12:53:00;8.5;;;4.7;;
52342;SDS011;38277;51.972;4.624;2023-03-01T13:00:31;5.7;;;3.4;;
52342;SDS011;38277;51.972;4.624;2023-03-01T13:09:55;8.4;;;3.7;;
52342;SDS011;38277;51.972;4.624;2023-03-01T13:24:24;5.7;;;3.3;;
52342;SDS011;38277;51.972;4.624;2023-03-01T13:27:25;4.7;;;2.8;;
52342;SDS011;38277;51.972;4.624;2023-03-01T13:36:49;5.6;;;3.6;;
52342;SDS011;38277;51.972;4.624;2023-03-01T13:48:33;4.1;;;2.9;;
52342;SDS011;38277;51.972;4.624;2023-03-01T13:57:38;6.9;;;3.5;;
52342;SDS011;38277;51.972;4.624;2023-03-01T14:03:41;5.8;;;3.0;;
52342;SDS011;38277;51.972;4.624;2023-03-01T14:13:02;3.8;;;2.8;;
52342;SDS011;38277;51.972;4.624;2023-03-01T14:21:44;4.8;;;2.5;;
52342;SDS011;38277;51.972;4.624;2023-03-01T14:30:47;7.3;;;5.0;;
52342;SDS011;38277;51.972;4.624;2023-03-01T14:39:50;6.6;;;3.2;;
52342;SDS011;38277;51.972;4.624;2023-03-01T14:48:54;7.3;;;3.3;;
52342;SDS011;38277;51.972;4.624;2023-03-01T14:51:54;6.0;;;3.2;;
52342;SDS011;38277;51.972;4.624;2023-03-01T15:00:57;5.6;;;3.2;;
52342;SDS011;38277;51.972;4.624;2023-03-01T15:13:10;5.7;;;3.6;;
52342;SDS011;38277;51.972;4.624;2023-03-01T15:25:13;5.3;;;3.7;;
52342;SDS011;38277;51.972;4.624;2023-03-01T15:28:12;6.5;;;3.9;;
52342;SDS011;38277;51.972;4.624;2023-03-01T15:37:35;6.7;;;3.7;;
52342;SDS011;38277;51.972;4.624;2023-03-01T15:49:25;9.1;;;4.5;;
52342;SDS011;38277;51.972;4.624;2023-03-01T16:04:19;8.7;;;4.3;;
52342;SDS011;38277;51.972;4.624;2023-03-01T16:13:22;9.5;;;4.0;;
52342;SDS011;38277;51.972;4.624;2023-03-01T16:22:25;8.3;;;4.5;;
52342;SDS011;38277;51.972;4.624;2023-03-01T16:31:28;9.2;;;4.2;;
52342;SDS011;38277;51.972;4.624;2023-03-01T16:40:31;9.4;;;4.9;;
52342;SDS011;38277;51.972;4.624;2023-03-01T16:49:35;10.9;;;4.9;;
52342;SDS011;38277;51.972;4.624;2023-03-01T17:01:39;9.7;;;4.8;;
52342;SDS011;38277;51.972;4.624;2023-03-01T17:07:41;9.6;;;4.8;;
52342;SDS011;38277;51.972;4.624;2023-03-01T17:16:44;11.8;;;4.8;;
52342;SDS011;38277;51.972;4.624;2023-03-01T17:25:47;8.9;;;5.0;;
52342;SDS011;38277;51.972;4.624;2023-03-01T17:52:56;9.7;;;4.5;;
52342;SDS011;38277;51.972;4.624;2023-03-01T17:56:02;10.3;;;5.1;;
52342;SDS011;38277;51.972;4.624;2023-03-01T18:02:16;11.1;;;5.4;;
52342;SDS011;38277;51.972;4.624;2023-03-01T18:08:40;10.6;;;5.2;;
52342;SDS011;38277;51.972;4.624;2023-03-01T18:14:42;11.5;;;5.3;;
52342;SDS011;38277;51.972;4.624;2023-03-01T18:20:44;8.7;;;5.1;;
52342;SDS011;38277;51.972;4.624;2023-03-01T18:26:57;12.6;;;5.3;;
52342;SDS011;38277;51.972;4.624;2023-03-01T18:40:09;14.0;;;6.8;;
52342;SDS011;38277;51.972;4.624;2023-03-01T18:54:03;11.2;;;5.9;;
52342;SDS011;38277;51.972;4.624;2023-03-01T19:00:04;14.5;;;6.9;;
52342;SDS011;38277;51.972;4.624;2023-03-01T19:07:28;12.7;;;6.0;;
52342;SDS011;38277;51.972;4.624;2023-03-01T19:13:30;14.4;;;6.8;;
52342;SDS011;38277;51.972;4.624;2023-03-01T19:20:42;13.9;;;6.9;;
52342;SDS011;38277;51.972;4.624;2023-03-01T19:26:44;14.8;;;6.7;;
52342;SDS011;38277;51.972;4.624;2023-03-01T19:32:46;14.6;;;6.9;;
52342;SDS011;38277;51.972;4.624;2023-03-01T19:35:47;15.3;;;6.9;;
52342;SDS011;38277;51.972;4.624;2023-03-01T19:44:50;11.8;;;6.1;;
52342;SDS011;38277;51.972;4.624;2023-03-01T19:56:55;13.6;;;6.6;;
52342;SDS011;38277;51.972;4.624;2023-03-01T20:02:57;13.4;;;6.7;;
52342;SDS011;38277;51.972;4.624;2023-03-01T20:12:00;12.9;;;6.5;;
52342;SDS011;38277;51.972;4.624;2023-03-01T20:21:03;14.5;;;6.5;;
52342;SDS011;38277;51.972;4.624;2023-03-01T20:30:06;12.9;;;6.2;;
52342;SDS011;38277;51.972;4.624;2023-03-01T20:39:09;16.5;;;7.6;;
52342;SDS011;38277;51.972;4.624;2023-03-01T20:48:12;15.4;;;7.7;;
52342;SDS011;38277;51.972;4.624;2023-03-01T20:57:15;16.4;;;7.3;;
52342;SDS011;38277;51.972;4.624;2023-03-01T21:09:19;15.1;;;6.8;;
52342;SDS011;38277;51.972;4.624;2023-03-01T21:15:21;14.7;;;6.6;;
52342;SDS011;38277;51.972;4.624;2023-03-01T21:18:22;16.9;;;8.2;;
52342;SDS011;38277;51.972;4.624;2023-03-01T21:24:24;15.7;;;7.7;;
52342;SDS011;38277;51.972;4.624;2023-03-01T21:34:19;14.9;;;7.6;;
52342;SDS011;38277;51.972;4.624;2023-03-01T21:37:20;16.7;;;8.4;;
52342;SDS011;38277;51.972;4.624;2023-03-01T21:44:52;17.7;;;8.2;;
52342;SDS011;38277;51.972;4.624;2023-03-01T21:50:54;16.1;;;8.5;;
52342;SDS011;38277;51.972;4.624;2023-03-01T21:59:57;16.9;;;8.6;;
52342;SDS011;38277;51.972;4.624;2023-03-01T22:02:58;21.2;;;9.6;;
52342;SDS011;38277;51.972;4.624;2023-03-01T22:09:04;19.2;;;9.6;;
52342;SDS011;38277;51.972;4.624;2023-03-01T22:16:29;16.7;;;8.6;;
52342;SDS011;38277;51.972;4.624;2023-03-01T22:25:31;18.5;;;9.2;;
52342;SDS011;38277;51.972;4.624;2023-03-01T22:29:45;16.7;;;8.3;;
52342;SDS011;38277;51.972;4.624;2023-03-01T22:35:47;16.6;;;8.6;;
52342;SDS011;38277;51.972;4.624;2023-03-01T22:41:49;20.1;;;8.5;;
52342;SDS011;38277;51.972;4.624;2023-03-01T22:50:52;18.8;;;8.9;;
52342;SDS011;38277;51.972;4.624;2023-03-01T22:56:54;18.1;;;9.4;;
52342;SDS011;38277;51.972;4.624;2023-03-01T23:04:26;20.5;;;9.5;;
52342;SDS011;38277;51.972;4.624;2023-03-01T23:07:27;18.0;;;9.5;;
52342;SDS011;38277;51.972;4.624;2023-03-01T23:17:59;18.1;;;9.0;;
52342;SDS011;38277;51.972;4.624;2023-03-01T23:24:01;18.4;;;8.8;;
52342;SDS011;38277;51.972;4.624;2023-03-01T23:28:17;18.1;;;8.7;;
52342;SDS011;38277;51.972;4.624;2023-03-01T23:37:20;17.8;;;8.1;;
52342;SDS011;38277;51.972;4.624;2023-03-01T23:45:08;18.5;;;9.7;;
52342;SDS011;38277;51.972;4.624;2023-03-01T23:48:09;19.9;;;9.8;;
52342;SDS011;38277;51.972;4.624;2023-03-01T23:58:12;20.0;;;10.2;;
